Content
SEND FEEDBACK

Daily
Averages
Monthly
Summary
Norway

BODO, NORWAY


Home > Europe > Norway
Elevation: 141 feet     Latitude: 67 16N     Longitude: 014 22E

WEATHER
 
SELECT A DAY
Number of Records: 262,643;   Date Range: 7/1/96 - 9/15/14
 
SHARE

PRINT THIS DATA

[ ← Previous Day ]
WEATHER ALMANAC - JANUARY 31, 2013
[ Next Day → ]
[ °C ]   °F
Weather ElementAverageHighLow
Temperature32.2 °F37.4 °F (11:50 pm)30.2 °F (1:50 am)
Dewpoint27.9 °F32 °F (10:50 pm)24.8 °F (4:50 am)
Humidity84.2 %93 % (1:00 am)70 % (4:20 pm)
Barometer28.85 in28.90 in (1:00 pm)28.74 in (1:00 am)
Wind Speed10.9 mph26.5 mph (11:50 pm)
Weather ElementAverage
Visibility6.8 mi
Wind DirectionSSW (212.8 °)

Weather ElementTotal
Precipitation---
Heating Degree Days31.2 (Base 65)
Averaged from 46 records on January 31, 2013
WEATHER CONDITIONS BREAKOUT
WIND DIRECTION BREAKOUT
WEATHER BY HOUR - JANUARY 31, 2013
[ °C ]   °F
Local TimeTemperatureDewpointHumidityBarometerVisibilityWind DirectionWind SpeedGust SpeedPrecipitationEventsConditions
1:00 AM31.0 °F30.0 °F93 %28.74 in2.0 miNNE (20°)8.9 mphSnowLight Snow
1:50 AM30.2 °F28.4 °F93 %28.74 in2.5 miNNE (30°)9.2 mphSnowLight Snow
2:50 AM30.2 °F26.6 °F86 %28.74 in6.2 miNNE (20°)12.7 mphMostly Cloudy
3:50 AM32.0 °F26.6 °F80 %28.74 in6.2 miNNE (20°)11.5 mphOvercast
4:20 AM32.0 °F26.6 °F80 %28.77 in6.2 miNorth (360°)9.2 mphOvercast
4:50 AM32.0 °F24.8 °F75 %28.77 in6.2 miNorth (10°)9.2 mphOvercast
5:20 AM32.0 °F24.8 °F75 %28.77 in6.2 miNorth (360°)9.2 mphOvercast
5:50 AM32.0 °F24.8 °F75 %28.80 in6.2 miNNE (20°)11.5 mphMostly Cloudy
6:20 AM30.2 °F26.6 °F86 %28.80 in6.2 miNorth (10°)6.9 mphMostly Cloudy
6:50 AM32.0 °F26.6 °F80 %28.80 in6.2 miNorth (350°)5.8 mphMostly Cloudy
7:00 AM31.0 °F27.0 °F77 %28.82 in34.0 miNorth (10°)4.5 mphPartly Cloudy
7:20 AM30.2 °F26.6 °F86 %28.82 in6.2 miNorth (350°)4.6 mphMostly Cloudy
7:50 AM30.2 °F26.6 °F86 %28.82 in6.2 miNNW (340°)5.8 mphMostly Cloudy
8:20 AM30.2 °F26.6 °F86 %28.82 in6.2 miWNW (290°)3.5 mphMostly Cloudy
8:50 AM30.2 °F26.6 °F86 %28.82 in6.2 miWest (280°)3.5 mphMostly Cloudy
9:20 AM30.2 °F24.8 °F80 %28.82 in6.2 miWest (260°)5.8 mphMostly Cloudy
9:50 AM30.2 °F28.4 °F93 %28.85 in6.2 miWest (270°)11.5 mphSnowLight Snow Showers
10:20 AM32.0 °F30.2 °F93 %28.85 in6.2 miVariable1.2 mphMostly Cloudy
10:50 AM32.0 °F28.4 °F87 %28.85 in6.2 miNE (40°)9.2 mphMostly Cloudy
11:20 AM30.2 °F28.4 °F93 %28.85 in6.2 miNE (40°)4.6 mphScattered Clouds
11:50 AM30.2 °F28.4 °F93 %28.85 in6.2 miVariable2.3 mphScattered Clouds
12:20 PM30.2 °F26.6 °F86 %28.88 in6.2 miWest (270°)3.5 mphScattered Clouds
12:50 PM32.0 °F28.4 °F87 %28.88 in6.2 miWSW (250°)3.5 mphScattered Clouds
1:00 PM32.0 °F29.0 °F83 %28.90 in31.0 miWSW (240°)2.2 mphPartly Cloudy
1:20 PM32.0 °F28.4 °F87 %28.88 in6.2 miWSW (250°)4.6 mphScattered Clouds
1:50 PM33.8 °F28.4 °F81 %28.88 in6.2 miWNW (290°)4.6 mphScattered Clouds
2:20 PM33.8 °F26.6 °F75 %28.88 in6.2 miWest (280°)8.1 mphPartly Cloudy
2:50 PM32.0 °F26.6 °F80 %28.88 in6.2 miWest (280°)8.1 mphScattered Clouds
3:20 PM32.0 °F26.6 °F80 %28.88 in6.2 miWest (270°)10.4 mphScattered Clouds
3:50 PM35.6 °F28.4 °F75 %28.88 in6.2 miWest (280°)16.1 mphScattered Clouds
4:20 PM35.6 °F26.6 °F70 %28.88 in6.2 miWest (270°)18.4 mphScattered Clouds
4:50 PM35.6 °F28.4 °F75 %28.88 in6.2 miWest (260°)18.4 mphScattered Clouds
5:20 PM33.8 °F28.4 °F81 %28.88 in6.2 miWest (270°)20.7 mphScattered Clouds
5:50 PM33.8 °F28.4 °F81 %28.88 in6.2 miWSW (250°)18.4 mphLight Small Hail Showers
6:20 PM33.8 °F28.4 °F81 %28.88 in6.2 miWest (270°)15.0 mphScattered Clouds
6:50 PM32.0 °F28.4 °F87 %28.88 in2.5 miWest (280°)21.9 mphSmall Hail
7:00 PM32.0 °F30.0 °F91 %28.90 in2.0 miWest (280°)15.7 mphHailHeavy Small Hail
7:20 PM32.0 °F30.2 °F93 %28.88 in6.2 miWest (260°)20.7 mphLight Small Hail Showers
7:50 PM32.0 °F30.2 °F93 %28.88 in6.2 miWest (260°)17.3 mphLight Small Hail Showers
8:20 PM32.0 °F30.2 °F93 %28.88 in6.2 miWest (260°)20.7 mphSnowLight Small Hail Showers
8:50 PM33.8 °F30.2 °F87 %28.88 in6.2 miWest (280°)18.4 mphPartly Cloudy
9:20 PM33.8 °F28.4 °F81 %28.88 in6.2 miWest (270°)17.3 mphScattered Clouds
9:50 PM33.8 °F30.2 °F87 %28.88 in2.5 miWNW (300°)19.6 mphSnowSmall Hail
10:20 PM32.0 °F30.2 °F93 %28.88 in2.5 miWest (260°)8.1 mphSnowLight Snow Showers
10:50 PM33.8 °F32.0 °F93 %28.88 in6.2 miWSW (240°)13.8 mphScattered Clouds
11:50 PM37.4 °F28.4 °F70 %28.88 in6.2 miWNW (290°)26.5 mphMostly Cloudy
Hourly data recorded from ENBO, located miles away from Bodo, Norway







STORIES FROM OUR PARTNERS